Terminal Aerodrome Forecast
Issued by NWS

Home | Current Version | Previous Version | Text Only | Print | Product List | Glossary On
Versions: 1 2 3 4 5 6 7 8 9 10 11 12 13 14 15 16 17 18
000
FTUS43 KBIS 231700
TAFMOT
TAF
KMOT 231733Z 2318/2418 12015KT P6SM SCT020 BKN050
     FM240100 12013KT P6SM SCT060 SCT080
     FM240500 11011KT P6SM VCTS SCT050CB SCT080
      TEMPO 2406/2410 -TSRA OVC040CB
     FM241400 13015KT P6SM SCT070 SCT100=

USA.gov is the U.S. government's official web portal to all federal, state and local government web resources and services.